createdAt,value
2023-02-02T00:02:02.319Z,89.02
2023-02-02T00:04:31.454Z,88.96
2023-02-02T00:06:58.789Z,89.18
2023-02-02T00:09:28.980Z,89.38
2023-02-02T00:11:56.294Z,89.30
2023-02-02T00:14:23.329Z,89.34
2023-02-02T00:16:51.789Z,89.22
2023-02-02T00:19:20.600Z,89.41
2023-02-02T00:21:48.101Z,89.19
2023-02-02T00:24:18.189Z,89.32
2023-02-02T00:26:46.428Z,89.11
2023-02-02T00:29:18.019Z,89.17
2023-02-02T00:31:44.870Z,89.22
2023-02-02T00:34:12.836Z,89.33
2023-02-02T00:36:39.774Z,89.10
2023-02-02T00:39:06.766Z,89.18
2023-02-02T00:41:33.656Z,89.05
2023-02-02T00:44:17.994Z,89.27
2023-02-02T00:46:45.120Z,89.24
2023-02-02T00:49:12.046Z,89.33
2023-02-02T00:51:39.389Z,89.19
2023-02-02T00:54:06.433Z,89.17
2023-02-02T00:56:33.821Z,89.06
2023-02-02T00:59:00.784Z,89.23
2023-02-02T01:01:27.718Z,89.26
2023-02-02T01:03:56.171Z,89.40
2023-02-02T01:06:23.280Z,89.10
2023-02-02T01:08:50.130Z,88.85
2023-02-02T01:11:17.196Z,88.61
2023-02-02T01:13:43.987Z,88.33
2023-02-02T01:16:12.567Z,88.22
2023-02-02T01:18:40.031Z,88.00
2023-02-02T01:21:09.477Z,88.06
2023-02-02T01:23:37.779Z,88.11
2023-02-02T01:26:06.756Z,88.10
2023-02-02T01:28:33.621Z,88.10
2023-02-02T01:31:06.340Z,88.16
2023-02-02T01:33:33.342Z,88.21
2023-02-02T01:36:00.167Z,88.26
2023-02-02T01:38:27.596Z,88.48
2023-02-02T01:40:56.466Z,88.38
2023-02-02T01:43:27.970Z,88.47
2023-02-02T01:45:56.390Z,88.60
2023-02-02T01:48:25.680Z,88.83
2023-02-02T01:50:56.828Z,88.92
2023-02-02T01:53:24.167Z,89.20
2023-02-02T01:55:53.429Z,89.48
2023-02-02T01:58:24.600Z,89.69
2023-02-02T02:00:52.063Z,89.83
2023-02-02T02:03:22.088Z,90.09
2023-02-02T02:05:52.980Z,90.15
2023-02-02T02:08:24.663Z,90.46
2023-02-02T02:10:52.028Z,90.60
2023-02-02T02:13:21.749Z,90.87
2023-02-02T02:16:14.389Z,91.03
2023-02-02T02:18:51.479Z,91.17
2023-02-02T02:21:54.940Z,91.04
2023-02-02T02:25:12.403Z,91.31
2023-02-02T02:28:12.069Z,91.34
2023-02-02T02:31:09.720Z,91.27
2023-02-02T02:33:37.265Z,91.50
2023-02-02T02:36:11.898Z,91.41
2023-02-02T02:38:44.888Z,91.40
2023-02-02T02:41:17.892Z,91.16
2023-02-02T02:43:50.350Z,91.19
2023-02-02T02:46:17.858Z,91.11
2023-02-02T02:48:47.790Z,91.22
2023-02-02T02:51:47.758Z,91.37
2023-02-02T02:54:23.421Z,91.44
2023-02-02T02:57:08.119Z,91.77
2023-02-02T02:59:47.009Z,91.83
2023-02-02T03:02:31.124Z,92.18
2023-02-02T03:05:09.048Z,92.33
2023-02-02T03:07:40.183Z,92.42
2023-02-02T03:10:11.650Z,92.57
2023-02-02T03:12:46.835Z,92.67
2023-02-02T03:15:15.516Z,92.90
2023-02-02T03:17:43.833Z,92.96
2023-02-02T03:20:12.645Z,92.92
2023-02-02T03:22:39.627Z,92.90
2023-02-02T03:25:07.556Z,92.91
2023-02-02T03:27:35.017Z,93.12
2023-02-02T03:30:02.249Z,93.23
2023-02-02T03:32:29.307Z,93.17
2023-02-02T03:34:56.125Z,93.20
2023-02-02T03:37:23.087Z,93.22
2023-02-02T03:39:49.926Z,93.20
2023-02-02T03:42:16.889Z,93.24
2023-02-02T03:44:43.685Z,93.17
2023-02-02T03:47:10.857Z,93.19
2023-02-02T03:49:37.619Z,93.06
2023-02-02T03:52:05.059Z,93.12
2023-02-02T03:54:32.411Z,92.99
2023-02-02T03:56:59.284Z,92.99
2023-02-02T03:59:26.270Z,92.91
2023-02-02T04:01:53.232Z,92.86
2023-02-02T04:04:20.345Z,92.72
2023-02-02T04:06:47.238Z,92.80
2023-02-02T04:09:14.083Z,92.66
2023-02-02T04:11:40.824Z,92.74
2023-02-02T04:14:07.578Z,92.56
2023-02-02T04:16:37.198Z,92.41
2023-02-02T04:19:04.002Z,92.51
2023-02-02T04:21:31.161Z,92.40
2023-02-02T04:23:58.539Z,92.49
2023-02-02T04:26:26.311Z,92.37
2023-02-02T04:28:53.134Z,92.26
2023-02-02T04:31:20.037Z,92.01
2023-02-02T04:33:46.866Z,92.03
2023-02-02T04:36:13.867Z,92.05
2023-02-02T04:38:40.617Z,91.99
2023-02-02T04:41:11.733Z,91.95
2023-02-02T04:43:39.174Z,91.83
2023-02-02T04:46:06.758Z,91.71
2023-02-02T04:48:33.836Z,91.76
2023-02-02T04:51:04.830Z,91.71
2023-02-02T04:53:32.322Z,91.72
2023-02-02T04:55:59.666Z,91.44
2023-02-02T04:58:26.501Z,91.23
2023-02-02T05:00:53.658Z,91.28
2023-02-02T05:03:21.005Z,91.38
2023-02-02T05:05:48.042Z,91.28
2023-02-02T05:08:14.801Z,91.20
2023-02-02T05:10:43.600Z,91.31
2023-02-02T05:13:10.835Z,91.41
2023-02-02T05:15:37.883Z,91.37
2023-02-02T05:18:04.799Z,91.16
2023-02-02T05:20:31.634Z,91.17
2023-02-02T05:22:58.506Z,91.24
2023-02-02T05:25:25.519Z,91.03
2023-02-02T05:27:52.791Z,91.01
2023-02-02T05:30:20.349Z,91.03
2023-02-02T05:32:47.187Z,90.94
2023-02-02T05:35:14.509Z,90.82
2023-02-02T05:37:43.254Z,90.81
2023-02-02T05:40:12.450Z,90.91
2023-02-02T05:42:39.256Z,90.76
2023-02-02T05:45:07.075Z,90.54
2023-02-02T05:47:35.756Z,90.71
2023-02-02T05:50:03.389Z,90.74
2023-02-02T05:52:38.412Z,90.50
2023-02-02T05:55:05.906Z,90.38
2023-02-02T05:57:32.719Z,90.40
2023-02-02T05:59:59.610Z,90.41
2023-02-02T06:02:26.527Z,90.33
2023-02-02T06:04:53.563Z,90.27
2023-02-02T06:07:20.638Z,90.19
2023-02-02T06:09:47.465Z,90.15
2023-02-02T06:12:14.311Z,90.19
2023-02-02T06:14:41.058Z,90.08
2023-02-02T06:17:08.081Z,90.02
2023-02-02T06:19:34.926Z,90.02
2023-02-02T06:22:01.987Z,89.91
2023-02-02T06:24:30.405Z,89.88
2023-02-02T06:26:57.413Z,89.78
2023-02-02T06:29:24.887Z,89.59
2023-02-02T06:31:51.752Z,89.41
2023-02-02T06:34:18.925Z,89.35
2023-02-02T06:36:45.829Z,89.47
2023-02-02T06:39:12.724Z,89.33
2023-02-02T06:41:40.476Z,89.14
2023-02-02T06:44:07.458Z,89.11
2023-02-02T06:46:34.212Z,89.17
2023-02-02T06:49:00.993Z,89.09
2023-02-02T06:51:28.272Z,89.13
2023-02-02T06:53:56.145Z,89.10
2023-02-02T06:56:24.695Z,88.98
2023-02-02T06:58:51.481Z,89.07
2023-02-02T07:01:18.769Z,89.34
2023-02-02T07:03:49.274Z,89.36
2023-02-02T07:06:21.164Z,89.48
2023-02-02T07:08:57.504Z,89.42
2023-02-02T07:11:30.364Z,89.45
2023-02-02T07:13:57.640Z,89.75
2023-02-02T07:16:24.551Z,89.32
2023-02-02T07:18:51.740Z,89.65
2023-02-02T07:21:21.366Z,89.62
2023-02-02T07:23:48.297Z,89.64
2023-02-02T07:26:16.230Z,89.49
2023-02-02T07:28:43.556Z,89.58
2023-02-02T07:31:19.387Z,89.71
2023-02-02T07:33:47.933Z,89.76
2023-02-02T07:36:17.372Z,89.87
2023-02-02T07:38:44.728Z,89.92
2023-02-02T07:41:11.675Z,90.20
2023-02-02T07:43:39.019Z,90.15
2023-02-02T07:46:08.446Z,90.13
2023-02-02T07:48:35.952Z,90.36
2023-02-02T07:51:04.344Z,90.35
2023-02-02T07:53:31.729Z,90.25
2023-02-02T07:56:08.873Z,90.49
2023-02-02T07:58:35.934Z,90.21
2023-02-02T08:01:05.646Z,90.22
2023-02-02T08:03:32.519Z,90.34
2023-02-02T08:06:00.406Z,90.48
2023-02-02T08:08:27.252Z,90.55
2023-02-02T08:10:55.296Z,90.49
2023-02-02T08:13:22.817Z,90.45
2023-02-02T08:15:49.851Z,90.00
2023-02-02T08:18:17.122Z,89.84
2023-02-02T08:20:44.120Z,89.91
2023-02-02T08:23:15.752Z,89.76
2023-02-02T08:25:42.868Z,89.67
2023-02-02T08:28:09.852Z,89.73
2023-02-02T08:30:37.013Z,89.69
2023-02-02T08:33:03.806Z,89.80
2023-02-02T08:35:31.095Z,89.76
2023-02-02T08:37:57.898Z,89.87
2023-02-02T08:40:25.576Z,89.92
2023-02-02T08:42:56.028Z,89.94
2023-02-02T08:46:02.510Z,90.03
2023-02-02T08:48:12.697Z,89.93
2023-02-02T08:50:39.819Z,90.15
2023-02-02T08:53:06.716Z,90.25
2023-02-02T08:55:33.589Z,90.41
2023-02-02T08:58:02.655Z,90.28
2023-02-02T09:00:29.704Z,90.14
2023-02-02T09:02:56.576Z,90.37
2023-02-02T09:05:24.150Z,90.47
2023-02-02T09:07:51.266Z,90.71
2023-02-02T09:10:19.565Z,90.64
2023-02-02T09:12:46.510Z,90.44
2023-02-02T09:15:13.839Z,90.57
2023-02-02T09:17:40.827Z,90.30
2023-02-02T09:20:09.592Z,90.33
2023-02-02T09:22:36.717Z,90.30
2023-02-02T09:25:03.647Z,90.50
2023-02-02T09:27:30.383Z,90.29
2023-02-02T09:29:57.189Z,90.12
2023-02-02T09:32:24.097Z,89.90
2023-02-02T09:34:50.936Z,89.93
2023-02-02T09:37:17.733Z,90.11
2023-02-02T09:39:45.065Z,90.18
2023-02-02T09:42:41.443Z,90.04
2023-02-02T09:45:14.655Z,89.91
2023-02-02T09:47:55.761Z,89.93
2023-02-02T09:50:33.568Z,89.69
2023-02-02T09:53:06.949Z,89.82
2023-02-02T09:55:39.311Z,89.65
2023-02-02T09:58:14.629Z,89.68
2023-02-02T10:00:47.541Z,89.79
2023-02-02T10:03:21.158Z,90.02
2023-02-02T10:05:56.792Z,89.87
2023-02-02T10:08:35.473Z,89.74
2023-02-02T10:11:06.417Z,89.89
2023-02-02T10:13:39.102Z,89.92
2023-02-02T10:16:17.233Z,89.88
2023-02-02T10:18:49.585Z,90.12
2023-02-02T10:21:25.924Z,89.84
2023-02-02T10:23:54.647Z,89.67
2023-02-02T10:26:23.553Z,89.48
2023-02-02T10:29:10.212Z,89.53
2023-02-02T10:31:50.943Z,89.27
2023-02-02T10:34:28.097Z,89.36
2023-02-02T10:37:13.640Z,89.30
2023-02-02T10:39:54.671Z,89.32
2023-02-02T10:42:34.369Z,89.22
2023-02-02T10:45:04.731Z,89.23
2023-02-02T10:47:34.353Z,88.77
2023-02-02T10:50:20.523Z,89.26
2023-02-02T10:52:50.453Z,89.25
2023-02-02T10:55:26.760Z,89.39
2023-02-02T10:58:01.644Z,89.05
2023-02-02T11:00:36.067Z,88.95
2023-02-02T11:03:04.924Z,88.83
2023-02-02T11:05:51.373Z,88.81
2023-02-02T11:08:20.801Z,88.74
2023-02-02T11:10:51.354Z,88.53
2023-02-02T11:13:26.205Z,88.61
2023-02-02T11:16:13.357Z,88.28
2023-02-02T11:18:40.378Z,88.10
2023-02-02T11:21:21.278Z,88.20
2023-02-02T11:23:56.583Z,88.10
2023-02-02T11:26:24.281Z,88.58
2023-02-02T11:28:53.662Z,89.00
2023-02-02T11:31:36.487Z,89.05
2023-02-02T11:34:23.763Z,89.09
2023-02-02T11:37:14.677Z,89.16
2023-02-02T11:39:42.255Z,89.44
2023-02-02T11:42:16.342Z,89.30
2023-02-02T11:44:44.724Z,89.43
2023-02-02T11:47:22.775Z,89.41
2023-02-02T11:49:51.846Z,89.38
2023-02-02T11:52:23.174Z,89.27
2023-02-02T11:54:53.440Z,89.11
2023-02-02T11:57:23.352Z,89.16
2023-02-02T11:59:51.991Z,89.17
2023-02-02T12:02:32.808Z,89.16
2023-02-02T12:05:34.297Z,89.38
2023-02-02T12:08:02.829Z,89.24
2023-02-02T12:10:36.770Z,89.17
2023-02-02T12:13:10.100Z,89.38
2023-02-02T12:15:48.629Z,89.33
2023-02-02T12:18:38.320Z,89.49
2023-02-02T12:21:08.145Z,89.12
2023-02-02T12:23:52.162Z,89.18
2023-02-02T12:26:27.022Z,89.18
2023-02-02T12:29:12.634Z,89.04
2023-02-02T12:31:54.106Z,89.21
2023-02-02T12:34:31.242Z,88.98
2023-02-02T12:37:04.190Z,88.78
2023-02-02T12:39:45.519Z,88.94
2023-02-02T12:42:42.350Z,88.63
2023-02-02T12:45:26.621Z,88.93
2023-02-02T12:48:04.886Z,88.91
2023-02-02T12:50:39.646Z,89.07
2023-02-02T12:53:28.289Z,89.05
2023-02-02T12:56:05.616Z,89.16
2023-02-02T12:58:40.284Z,89.14
2023-02-02T13:01:24.221Z,89.37
2023-02-02T13:04:10.471Z,88.78
2023-02-02T13:06:55.051Z,88.06
2023-02-02T13:09:30.143Z,87.80
2023-02-02T13:12:03.812Z,87.67
2023-02-02T13:14:36.501Z,88.08
2023-02-02T13:17:08.926Z,87.92
2023-02-02T13:19:39.603Z,87.82
2023-02-02T13:22:11.550Z,88.03
2023-02-02T13:24:43.257Z,88.12
2023-02-02T13:27:16.300Z,88.27
2023-02-02T13:29:48.841Z,88.29
2023-02-02T13:32:22.404Z,88.15
2023-02-02T13:34:53.402Z,88.16
2023-02-02T13:37:27.119Z,88.24
2023-02-02T13:39:59.977Z,88.25
2023-02-02T13:42:38.051Z,88.40
2023-02-02T13:45:18.708Z,88.63
2023-02-02T13:47:50.747Z,88.63
2023-02-02T13:50:22.013Z,88.90
2023-02-02T13:53:17.920Z,89.01
2023-02-02T13:56:04.731Z,88.92
2023-02-02T13:58:54.581Z,88.91
2023-02-02T14:01:23.023Z,88.62
2023-02-02T14:03:56.591Z,88.56
2023-02-02T14:06:25.432Z,88.20
2023-02-02T14:08:56.936Z,87.86
2023-02-02T14:11:29.260Z,87.57
2023-02-02T14:14:17.265Z,87.31
2023-02-02T14:16:51.873Z,86.90
2023-02-02T14:19:42.077Z,86.73
2023-02-02T14:22:21.571Z,86.55
2023-02-02T14:24:51.619Z,86.55
2023-02-02T14:27:54.480Z,86.36
2023-02-02T14:30:27.937Z,86.13
2023-02-02T14:32:55.712Z,86.36
2023-02-02T14:36:00.956Z,86.22
2023-02-02T14:38:45.002Z,86.16
2023-02-02T14:41:40.703Z,86.05
2023-02-02T14:44:08.998Z,85.79
2023-02-02T14:46:48.107Z,85.73
2023-02-02T14:49:19.142Z,85.58
2023-02-02T14:51:55.324Z,85.52
2023-02-02T14:54:27.599Z,85.50
2023-02-02T14:56:58.967Z,85.40
2023-02-02T14:59:29.143Z,85.70
2023-02-02T15:02:03.448Z,85.78
2023-02-02T15:04:31.521Z,85.60
2023-02-02T15:07:18.486Z,85.55
2023-02-02T15:09:46.674Z,85.69
2023-02-02T15:12:28.313Z,85.64
2023-02-02T15:15:03.487Z,85.77
2023-02-02T15:17:44.730Z,85.75
2023-02-02T15:20:21.420Z,85.81
2023-02-02T15:22:49.832Z,85.90
2023-02-02T15:25:26.358Z,85.58
2023-02-02T15:27:56.976Z,85.71
2023-02-02T15:30:25.596Z,85.82
2023-02-02T15:32:54.552Z,85.82
2023-02-02T15:35:26.019Z,85.77
2023-02-02T15:37:59.056Z,85.90
2023-02-02T15:40:27.857Z,86.08
2023-02-02T15:43:00.281Z,86.59
2023-02-02T15:45:39.878Z,86.66
2023-02-02T15:48:11.167Z,87.11
2023-02-02T15:50:39.749Z,87.39
2023-02-02T15:53:07.602Z,87.64
2023-02-02T15:55:37.019Z,87.83
2023-02-02T15:58:05.253Z,88.10
2023-02-02T16:00:38.063Z,88.31
2023-02-02T16:03:11.725Z,88.40
2023-02-02T16:05:48.595Z,88.47
2023-02-02T16:08:17.453Z,88.69
2023-02-02T16:10:46.589Z,88.71
2023-02-02T16:13:26.471Z,88.74
2023-02-02T16:15:59.876Z,88.81
2023-02-02T16:18:27.307Z,88.79
2023-02-02T16:20:55.514Z,88.88
2023-02-02T16:23:28.891Z,88.49
2023-02-02T16:25:59.475Z,88.68
2023-02-02T16:28:26.902Z,88.58
2023-02-02T16:30:55.271Z,88.65
2023-02-02T16:33:37.909Z,88.55
2023-02-02T16:36:12.395Z,88.61
2023-02-02T16:38:39.747Z,88.59
2023-02-02T16:41:11.467Z,88.84
2023-02-02T16:43:39.559Z,88.57
2023-02-02T16:46:09.077Z,88.56
2023-02-02T16:48:38.618Z,88.50
2023-02-02T16:51:22.593Z,88.22
2023-02-02T16:53:58.014Z,88.21
2023-02-02T16:56:30.336Z,88.44
2023-02-02T16:58:59.680Z,88.36
2023-02-02T17:01:36.982Z,88.28
2023-02-02T17:04:05.044Z,88.37
2023-02-02T17:06:50.085Z,88.41
2023-02-02T17:09:25.745Z,88.26
2023-02-02T17:12:01.241Z,88.32
2023-02-02T17:14:32.039Z,88.39
2023-02-02T17:16:59.360Z,88.38
2023-02-02T17:19:29.302Z,88.38
2023-02-02T17:21:56.372Z,88.49
2023-02-02T17:24:23.146Z,88.58
2023-02-02T17:26:50.050Z,88.39
2023-02-02T17:29:25.325Z,88.39
2023-02-02T17:31:53.527Z,88.59
2023-02-02T17:34:20.419Z,88.29
2023-02-02T17:36:47.846Z,88.35
2023-02-02T17:39:14.638Z,88.30
2023-02-02T17:41:41.885Z,88.36
2023-02-02T17:44:11.433Z,88.12
2023-02-02T17:46:40.105Z,88.19
2023-02-02T17:49:07.674Z,88.27
2023-02-02T17:51:41.192Z,88.20
2023-02-02T17:54:13.377Z,88.22
2023-02-02T17:56:40.390Z,88.07
2023-02-02T17:59:07.206Z,87.97
2023-02-02T18:01:36.993Z,87.80
2023-02-02T18:04:06.881Z,87.74
2023-02-02T18:06:33.671Z,87.83
2023-02-02T18:09:00.672Z,87.93
2023-02-02T18:11:27.610Z,88.01
2023-02-02T18:13:54.829Z,88.07
2023-02-02T18:16:21.625Z,88.19
2023-02-02T18:18:48.387Z,88.29
2023-02-02T18:21:15.842Z,88.31
2023-02-02T18:23:42.695Z,88.25
2023-02-02T18:26:14.958Z,88.32
2023-02-02T18:28:41.922Z,88.27
2023-02-02T18:31:12.383Z,88.35
2023-02-02T18:33:40.562Z,88.34
2023-02-02T18:36:13.354Z,88.20
2023-02-02T18:38:42.051Z,88.21
2023-02-02T18:41:09.062Z,88.33
2023-02-02T18:43:35.915Z,88.27
2023-02-02T18:46:06.230Z,88.21
2023-02-02T18:48:33.594Z,88.12
2023-02-02T18:51:00.572Z,88.03
2023-02-02T18:53:27.372Z,88.05
2023-02-02T18:55:54.378Z,88.13
2023-02-02T18:58:21.218Z,87.93
2023-02-02T19:00:49.227Z,87.69
2023-02-02T19:03:15.971Z,87.76
2023-02-02T19:06:00.585Z,87.76
2023-02-02T19:08:27.412Z,87.53
2023-02-02T19:11:00.365Z,87.56
2023-02-02T19:13:28.874Z,87.32
2023-02-02T19:15:56.334Z,87.30
2023-02-02T19:18:25.127Z,87.37
2023-02-02T19:20:52.814Z,87.26
2023-02-02T19:23:23.206Z,87.23
2023-02-02T19:25:54.074Z,87.08
2023-02-02T19:28:26.324Z,87.25
2023-02-02T19:30:54.312Z,87.15
2023-02-02T19:33:22.098Z,87.20
2023-02-02T19:35:53.048Z,87.21
2023-02-02T19:38:27.054Z,87.10
2023-02-02T19:40:53.852Z,87.18
2023-02-02T19:43:28.055Z,87.30
2023-02-02T19:45:55.970Z,87.13
2023-02-02T19:48:24.531Z,86.99
2023-02-02T19:50:51.815Z,86.80
2023-02-02T19:53:24.091Z,86.67
2023-02-02T19:55:52.118Z,86.72
2023-02-02T19:58:23.099Z,86.65
2023-02-02T20:00:52.135Z,86.75
2023-02-02T20:03:21.797Z,86.57
2023-02-02T20:05:50.963Z,86.60
2023-02-02T20:08:25.491Z,86.77
2023-02-02T20:10:53.634Z,86.63
2023-02-02T20:13:23.241Z,86.62
2023-02-02T20:15:51.565Z,86.75
2023-02-02T20:18:23.426Z,86.67
2023-02-02T20:20:53.251Z,86.81
2023-02-02T20:23:40.933Z,86.73
2023-02-02T20:26:21.382Z,86.65
2023-02-02T20:28:49.687Z,86.66
2023-02-02T20:31:21.958Z,86.50
2023-02-02T20:33:51.953Z,86.51
2023-02-02T20:36:28.175Z,86.46
2023-02-02T20:38:55.385Z,86.45
2023-02-02T20:41:24.538Z,86.44
2023-02-02T20:43:51.300Z,86.39
2023-02-02T20:46:18.642Z,86.32
2023-02-02T20:48:47.834Z,86.20
2023-02-02T20:51:15.770Z,86.08
2023-02-02T20:53:42.801Z,86.05
2023-02-02T20:56:09.877Z,86.05
2023-02-02T20:58:36.745Z,86.02
2023-02-02T21:01:05.777Z,85.98
2023-02-02T21:03:34.122Z,86.10
2023-02-02T21:06:01.200Z,86.16
2023-02-02T21:08:28.636Z,86.15
2023-02-02T21:10:55.407Z,86.20
2023-02-02T21:13:22.207Z,86.32
2023-02-02T21:15:49.379Z,86.39
2023-02-02T21:18:16.195Z,86.47
2023-02-02T21:20:43.047Z,86.61
2023-02-02T21:23:10.290Z,86.91
2023-02-02T21:25:37.239Z,86.95
2023-02-02T21:28:04.154Z,87.11
2023-02-02T21:30:31.478Z,87.14
2023-02-02T21:32:59.394Z,87.28
2023-02-02T21:35:27.768Z,87.25
2023-02-02T21:37:57.609Z,87.19
2023-02-02T21:40:30.500Z,87.20
2023-02-02T21:42:58.923Z,87.50
2023-02-02T21:45:34.556Z,87.39
2023-02-02T21:48:03.418Z,87.30
2023-02-02T21:50:33.256Z,87.32
2023-02-02T21:53:14.054Z,87.22
2023-02-02T21:55:41.459Z,87.32
2023-02-02T21:58:18.967Z,87.30
2023-02-02T22:00:45.884Z,87.29
2023-02-02T22:03:28.608Z,87.12
2023-02-02T22:06:00.725Z,87.23
2023-02-02T22:08:27.964Z,87.30
2023-02-02T22:10:54.798Z,87.31
2023-02-02T22:13:24.941Z,87.15
2023-02-02T22:15:53.941Z,87.24
2023-02-02T22:18:23.063Z,87.03
2023-02-02T22:20:50.840Z,87.33
2023-02-02T22:23:20.771Z,87.44
2023-02-02T22:25:49.556Z,87.40
2023-02-02T22:28:26.138Z,87.50
2023-02-02T22:30:54.685Z,87.46
2023-02-02T22:33:23.201Z,87.47
2023-02-02T22:35:50.016Z,87.70
2023-02-02T22:38:20.708Z,87.84
2023-02-02T22:40:48.737Z,87.89
2023-02-02T22:43:17.278Z,87.96
2023-02-02T22:45:44.741Z,88.09
2023-02-02T22:48:11.648Z,88.19
2023-02-02T22:50:38.518Z,88.28
2023-02-02T22:53:06.241Z,88.33
2023-02-02T22:55:34.190Z,88.40
2023-02-02T22:58:01.438Z,88.42
2023-02-02T23:00:30.280Z,88.43
2023-02-02T23:02:57.674Z,88.66
2023-02-02T23:05:26.910Z,88.81
2023-02-02T23:07:53.990Z,88.96
2023-02-02T23:10:23.168Z,89.06
2023-02-02T23:12:50.806Z,89.21
2023-02-02T23:15:19.382Z,89.12
2023-02-02T23:17:46.285Z,89.26
2023-02-02T23:20:15.897Z,89.21
2023-02-02T23:22:42.983Z,89.35
2023-02-02T23:25:10.728Z,89.34
2023-02-02T23:27:37.702Z,89.46
2023-02-02T23:30:05.073Z,89.39
2023-02-02T23:32:32.231Z,89.26
2023-02-02T23:34:58.986Z,89.17
2023-02-02T23:37:25.713Z,89.11
2023-02-02T23:39:52.538Z,88.89
2023-02-02T23:42:19.279Z,88.96
2023-02-02T23:44:46.196Z,88.96
2023-02-02T23:47:13.310Z,88.84
2023-02-02T23:49:40.943Z,88.74
2023-02-02T23:52:07.942Z,88.49
2023-02-02T23:54:35.059Z,88.42
2023-02-02T23:57:02.606Z,88.17
2023-02-02T23:59:29.928Z,88.05
